Pazifik — ZDKS7 — position and weather

sailwx.info

Track history (hours):
 
Tides and Currents Weather Stations Pressure Air Temp Water Temp Dewpoint Dewpoint Depression Visibility Wind Speed Wind Dir Waves Ship Positions

Pazifik

Last reported at 2018-Apr-06 01:59 UTC. Time now 2018-May-23 20:09 UTC.
Position N 53°32' E 008°35'.
Warning: this ship's position is 47 days out of date.

Length 205 m; draft 10.2 m.

Type: Tanker. MMSI: 236111796.

Date/timePositionNaut miles runAvg speedWind from/ knotsBaromVisibWave heightAir tempDewpointWater temp
2018-Apr-06 01:59N 53°32' E 008°35'177323.7
2018-Apr-06 01:26N 52°11' E 004°14'0 0.0
2018-Apr-06 00:59N 52°11' E 004°14'177171.1
2018-Apr-05 23:57N 53°32' E 008°35'177344.2
2018-Apr-05 23:26N 52°11' E 004°14'177392.0
2018-Apr-05 22:59N 53°32' E 008°35'0 0.0
2018-Apr-05 22:29N 53°32' E 008°35'177168.9
2018-Apr-05 21:26N 52°11' E 004°14'17772.2
2018-Apr-05 18:59N 53°32' E 008°35'7 3.7
2018-Apr-05 16:59N 53°25' E 008°30'13 8.7
2018-Apr-05 15:30N 53°12' E 008°30'4 8.1
2018-Apr-05 15:00N 53°10' E 008°36'4 7.9
2018-Apr-05 14:30N 53°07' E 008°41'2 4.1
2018-Apr-05 14:00N 53°07' E 008°44'0 0.3
2018-Apr-05 13:00N 53°07' E 008°44'3 5.7
2018-Apr-05 12:30N 53°08' E 008°39'17184.5
2018-Apr-05 10:29N 52°11' E 004°14'0 0.0
2018-Apr-05 09:59N 52°11' E 004°14'170336.0
2018-Apr-05 09:29N 53°20' E 008°30'2 3.7
2018-Apr-05 08:59N 53°22' E 008°30'2 3.7
2018-Apr-05 08:25N 53°24' E 008°30'1 3.4
2018-Apr-05 08:00N 53°26' E 008°30'172335.8
2018-Apr-05 07:29N 52°11' E 004°14'173342.3
2018-Apr-05 06:59N 53°29' E 008°30'173316.9
2018-Apr-05 06:26N 52°11' E 004°14'0 0.0
2018-Apr-05 05:59N 52°11' E 004°14'176362.7
2018-Apr-05 05:30N 53°32' E 008°34'1 1.4
2018-Apr-05 04:59N 53°32' E 008°35'1 2.0
2018-Apr-05 04:31N 53°31' E 008°35'1 1.5
2018-Apr-05 03:56N 53°32' E 008°35'177395.0
2018-Apr-05 03:29N 52°11' E 004°14'0 0.0
2018-Apr-05 02:59N 52°11' E 004°14'0 0.0
2018-Apr-05 02:26N 52°11' E 004°14'0 0.2
2018-Apr-05 01:59N 52°11' E 004°14'177119.5
2018-Apr-05 00:30N 53°32' E 008°35'177340.3
2018-Apr-04 23:59N 52°11' E 004°14'0 0.0
2018-Apr-04 22:59N 52°11' E 004°14'0 0.0
2018-Apr-04 22:29N 52°11' E 004°14'0 0.0
2018-Apr-04 21:29N 52°11' E 004°14'0 0.1
2018-Apr-04 20:59N 52°11' E 004°14'177366.0
2018-Apr-04 20:30N 53°32' E 008°35'177342.2
2018-Apr-04 19:59N 52°11' E 004°14'0 0.0
2018-Apr-04 19:29N 52°11' E 004°14'0 0.1
2018-Apr-04 18:59N 52°11' E 004°14'177348.5
2018-Apr-04 18:29N 53°32' E 008°35'2 3.6
2018-Apr-04 18:00N 53°33' E 008°33'0 0.8
2018-Apr-04 17:30N 53°34' E 008°33'177350.5
2018-Apr-04 17:00N 52°11' E 004°14'1 1.6
2018-Apr-04 16:30N 52°11' E 004°12'612.3
2018-Apr-04 16:01N 52°11' E 004°02'713.7
2018-Apr-04 15:30N 52°12' E 003°51'8 2.6
2018-Apr-04 12:30N 52°05' E 003°51'714.2
2018-Apr-04 12:00N 52°07' E 004°02'713.8
2018-Apr-04 11:30N 52°10' E 004°12'179353.8
2018-Apr-04 11:00N 53°32' E 008°35'177346.3
2018-Apr-04 10:29N 52°11' E 004°13'0 0.1
2018-Apr-04 09:59N 52°11' E 004°13'0 0.1
2018-Apr-04 09:29N 52°11' E 004°13'0 0.0
2018-Apr-04 08:59N 52°11' E 004°13'0 0.0
2018-Apr-04 08:26N 52°11' E 004°13'177186.0
2018-Apr-04 07:29N 53°32' E 008°35'177355.5
2018-Apr-04 06:59N 52°11' E 004°13'0 0.0
2018-Apr-04 06:26N 52°11' E 004°13'0 0.0
2018-Apr-04 05:59N 52°11' E 004°14'0 0.0
2018-Apr-04 05:29N 52°11' E 004°14'177176.8
2018-Apr-04 04:29N 53°32' E 008°35'177355.5
2018-Apr-04 03:59N 52°11' E 004°14'0 0.0
2018-Apr-04 03:29N 52°11' E 004°14'0 0.0
2018-Apr-04 02:59N 52°11' E 004°13'177353.0
2018-Apr-04 02:29N 53°32' E 008°35'177355.6
2018-Apr-04 01:59N 52°11' E 004°13'0 0.0
2018-Apr-04 01:29N 52°11' E 004°13'0 0.1
2018-Apr-04 00:59N 52°11' E 004°13'177320.7
2018-Apr-04 00:26N 53°32' E 008°35'0 0.0
2018-Apr-03 23:59N 53°32' E 008°35'0 0.0
2018-Apr-03 23:29N 53°32' E 008°35'177357.9
2018-Apr-03 22:59N 52°11' E 004°13'177353.0
2018-Apr-03 22:29N 53°32' E 008°35'177355.3
2018-Apr-03 21:59N 52°11' E 004°14'0 0.1
2018-Apr-03 21:29N 52°11' E 004°14'0 0.0
2018-Apr-03 20:56N 52°11' E 004°14'0 0.1
2018-Apr-03 20:29N 52°11' E 004°14'0 0.0
2018-Apr-03 19:59N 52°11' E 004°14'0 0.0
2018-Apr-03 19:29N 52°11' E 004°14'0 0.0
2018-Apr-03 18:59N 52°11' E 004°14'177179.7
2018-Apr-03 18:00N 53°33' E 008°34'0 0.0
2018-Apr-03 17:30N 53°33' E 008°34'0 0.0
2018-Apr-03 17:00N 53°33' E 008°34'0 0.2
2018-Apr-03 16:30N 53°33' E 008°34'0 0.1
2018-Apr-03 16:00N 53°33' E 008°34'1 0.3
2018-Apr-03 12:00N 53°32' E 008°35'3 2.6
2018-Apr-03 11:00N 53°34' E 008°33'0 0.2
2018-Apr-03 10:27N 53°34' E 008°33'1 1.5
2018-Apr-03 10:00N 53°34' E 008°33'0 0.7
2018-Apr-03 09:30N 53°34' E 008°34'177330.5
2018-Apr-03 08:58N 52°11' E 004°13'0 0.0
2018-Apr-03 08:28N 52°11' E 004°13'0 0.0
2018-Apr-03 07:28N 52°11' E 004°13'0 0.0
2018-Apr-03 06:58N 52°11' E 004°13'177386.0
2018-Apr-03 06:30N 53°34' E 008°34'177328.5
2018-Apr-03 05:58N 52°11' E 004°13'0 0.0
2018-Apr-03 05:25N 52°11' E 004°13'177439.1
2018-Apr-03 05:00N 53°34' E 008°34'1 2.7
2018-Apr-03 04:30N 53°33' E 008°34'177299.1
2018-Apr-03 03:55N 52°11' E 004°13'0 0.0
2018-Apr-03 02:28N 52°11' E 004°13'0 0.0
2018-Apr-03 01:58N 52°11' E 004°13'177387.1
2018-Apr-03 01:30N 53°32' E 008°35'177326.3
2018-Apr-03 00:58N 52°11' E 004°13'177387.4
2018-Apr-03 00:30N 53°32' E 008°35'177326.6
2018-Apr-02 23:58N 52°11' E 004°13'177390.3
2018-Apr-02 23:30N 53°32' E 008°35'0 0.0
2018-Apr-02 23:00N 53°32' E 008°35'0 0.0
2018-Apr-02 22:30N 53°32' E 008°35'0 0.0
2018-Apr-02 22:00N 53°32' E 008°35'177326.7
2018-Apr-02 21:28N 52°11' E 004°13'0 0.2
2018-Apr-02 20:58N 52°11' E 004°13'0 0.1
2018-Apr-02 20:28N 52°11' E 004°13'0 0.0
2018-Apr-02 19:58N 52°11' E 004°13'177373.5
2018-Apr-02 19:29N 53°32' E 008°35'177336.6
2018-Apr-02 18:58N 52°11' E 004°13'0 0.0
2018-Apr-02 18:28N 52°11' E 004°13'177387.6
2018-Apr-02 18:00N 53°32' E 008°35'0 0.0
2018-Apr-02 17:30N 53°32' E 008°35'0 0.0
2018-Apr-02 16:57N 53°32' E 008°35'0 0.0
2018-Apr-02 16:29N 53°32' E 008°35'0 0.0
2018-Apr-02 16:00N 53°32' E 008°35'0 0.0
2018-Apr-02 15:30N 53°32' E 008°35'0 0.0
2018-Apr-02 15:00N 53°32' E 008°35'0 0.0
2018-Apr-02 14:30N 53°32' E 008°35'177329.8
2018-Apr-02 13:58N 52°11' E 004°13'0 0.1
2018-Apr-02 13:28N 52°11' E 004°13'0 0.1
2018-Apr-02 12:58N 52°11' E 004°13'177385.5
2018-Apr-02 12:30N 53°32' E 008°35'0 0.0
2018-Apr-02 12:00N 53°32' E 008°35'0 0.0
2018-Apr-02 11:30N 53°32' E 008°35'0 0.0
2018-Apr-02 10:58N 53°32' E 008°35'0 0.0
2018-Apr-02 09:58N 53°32' E 008°35'0 0.0
2018-Apr-02 09:30N 53°32' E 008°35'0 0.0
2018-Apr-02 09:00N 53°32' E 008°35'0 0.0
2018-Apr-02 08:00N 53°32' E 008°35'177325.0
2018-Apr-02 07:28N 52°11' E 004°13'177387.1
2018-Apr-02 07:00N 53°32' E 008°35'0 0.0
2018-Apr-02 05:57N 53°32' E 008°35'177326.3
2018-Apr-02 05:25N 52°11' E 004°13'0 0.0
2018-Apr-02 04:58N 52°11' E 004°13'0 0.0
2018-Apr-02 04:28N 52°11' E 004°13'0 0.0
2018-Apr-02 03:58N 52°11' E 004°13'0 0.0
2018-Apr-02 03:28N 52°11' E 004°13'177382.5
2018-Apr-02 03:00N 53°32' E 008°35'177329.7
2018-Apr-02 02:28N 52°11' E 004°13'0 0.1
2018-Apr-02 01:28N 52°11' E 004°13'0 0.1
2018-Apr-02 00:58N 52°11' E 004°13'0 0.1
2018-Apr-02 00:28N 52°11' E 004°13'17711.1
2018-Apr-01 08:30N 53°34' E 008°33'0 0.0
2018-Apr-01 07:00N 53°34' E 008°33'0 0.2
2018-Apr-01 06:30N 53°34' E 008°33'0 0.0
2018-Apr-01 06:00N 53°34' E 008°33'0 0.2
2018-Apr-01 05:30N 53°34' E 008°33'0 0.5
2018-Apr-01 05:00N 53°34' E 008°33'177115.0
2018-Apr-01 03:28N 52°11' E 004°14'177184.7
2018-Apr-01 02:30N 53°32' E 008°35'177326.2
2018-Apr-01 01:58N 52°11' E 004°14'177377.8
2018-Apr-01 01:30N 53°32' E 008°35'0 0.0
2018-Apr-01 00:55N 53°32' E 008°35'0 0.0
2018-Apr-01 00:30N 53°32' E 008°35'0 0.0
2018-Mar-31 23:00N 53°32' E 008°35'0 0.0
2018-Mar-31 22:30N 53°32' E 008°35'0 0.0
2018-Mar-31 22:00N 53°32' E 008°35'0 0.0
2018-Mar-31 21:30N 53°32' E 008°35'0 0.0
2018-Mar-31 20:30N 53°32' E 008°35'0 0.0
2018-Mar-31 19:58N 53°32' E 008°35'0 0.0
2018-Mar-31 19:30N 53°32' E 008°35'0 0.0
2018-Mar-31 19:00N 53°32' E 008°35'0 0.0
2018-Mar-31 18:30N 53°32' E 008°35'177114.5
2018-Mar-31 16:58N 52°11' E 004°14'177389.3
2018-Mar-31 16:30N 53°32' E 008°35'0 0.0
2018-Mar-31 16:00N 53°32' E 008°35'0 0.0
2018-Mar-31 15:30N 53°32' E 008°35'0 0.0
2018-Mar-31 15:00N 53°32' E 008°35'177324.4
2018-Mar-31 14:28N 52°11' E 004°14'0 0.0
2018-Mar-31 13:58N 52°11' E 004°14'0 0.0
2018-Mar-31 13:28N 52°11' E 004°14'177387.5
2018-Mar-31 13:00N 53°32' E 008°35'0 0.0
2018-Mar-31 12:30N 53°32' E 008°35'0 0.0
2018-Mar-31 12:00N 53°32' E 008°35'0 0.0
2018-Mar-31 11:30N 53°32' E 008°35'0 0.0
2018-Mar-31 11:00N 53°32' E 008°35'0 0.0
2018-Mar-31 10:30N 53°32' E 008°35'0 0.0
2018-Mar-31 10:00N 53°32' E 008°35'0 0.0
2018-Mar-31 09:30N 53°32' E 008°35'177333.6
2018-Mar-31 08:58N 52°11' E 004°13'177384.9
2018-Mar-31 08:30N 53°32' E 008°35'0 0.0
2018-Mar-31 08:00N 53°32' E 008°35'0 0.0
2018-Mar-31 07:28N 53°32' E 008°35'0 0.0
2018-Mar-31 07:00N 53°32' E 008°35'0 0.0
2018-Mar-31 06:30N 53°32' E 008°35'0 0.0
2018-Mar-31 06:00N 53°32' E 008°35'0 0.0
2018-Mar-31 05:28N 53°32' E 008°35'177355.3
2018-Mar-31 04:58N 52°11' E 004°14'0 0.0
2018-Mar-31 04:28N 52°11' E 004°14'177387.2
2018-Mar-31 04:00N 53°32' E 008°35'177325.9
2018-Mar-31 03:28N 52°11' E 004°14'0 0.0
2018-Mar-31 02:58N 52°11' E 004°14'177385.2
2018-Mar-31 02:30N 53°32' E 008°35'0 0.0
2018-Mar-31 02:00N 53°32' E 008°35'177326.1
2018-Mar-31 01:28N 52°11' E 004°13'177387.3
2018-Mar-31 01:00N 53°32' E 008°35'0 0.0
2018-Mar-31 00:29N 53°32' E 008°35'0 0.0
2018-Mar-31 00:00N 53°32' E 008°35'0 0.0
2018-Mar-30 23:30N 53°32' E 008°35'0 0.0
2018-Mar-30 23:00N 53°32' E 008°35'0 0.0
2018-Mar-30 22:30N 53°32' E 008°35'0 0.0
2018-Mar-30 22:00N 53°32' E 008°35'0 0.0
2018-Mar-30 21:30N 53°32' E 008°35'0 0.0
2018-Mar-30 21:00N 53°32' E 008°35'0 0.0
2018-Mar-30 20:30N 53°32' E 008°35'177331.7
2018-Mar-30 19:58N 52°11' E 004°13'177387.9
2018-Mar-30 19:30N 53°32' E 008°35'177326.6
2018-Mar-30 18:58N 52°11' E 004°13'177121.6
2018-Mar-30 17:30N 53°32' E 008°35'0 0.0
2018-Mar-30 16:58N 53°32' E 008°35'178390.8
2018-Mar-30 16:30N 52°11' E 004°12'1212.4
2018-Mar-30 15:30N 52°06' E 003°53'713.0
2018-Mar-30 15:00N 52°06' E 003°43'19656.1
2018-Mar-30 11:30N 53°32' E 008°35'0 0.0
2018-Mar-30 09:58N 53°32' E 008°35'270277.3
2018-Mar-30 09:00N 51°20' E 002°08'612.6
2018-Mar-30 08:30N 51°14' E 002°04'611.8
2018-Mar-30 08:01N 51°11' E 001°56'611.4
2018-Mar-30 07:30N 51°07' E 001°49'510.9
2018-Mar-30 07:00N 51°04' E 001°43'510.8
2018-Mar-30 06:31N 50°60' E 001°37'  
Track history (hours):
 
Tides and Currents Weather Stations Pressure Air Temp Water Temp Dewpoint Dewpoint Depression Visibility Wind Speed Wind Dir Waves Ship Positions

Pazifik

Last reported at 2018-Apr-06 01:59 UTC. Time now 2018-May-23 20:09 UTC.
Position N 53°32' E 008°35'.
Warning: this ship's position is 47 days out of date.

Length 205 m; draft 10.2 m.

Type: Tanker. MMSI: 236111796.

Date/timePositionNaut miles runAvg speedWind from/ knotsBaromVisibWave heightAir tempDewpointWater temp
2018-Apr-06 01:59N 53°32' E 008°35'177323.7
2018-Apr-06 01:26N 52°11' E 004°14'0 0.0
2018-Apr-06 00:59N 52°11' E 004°14'177171.1
2018-Apr-05 23:57N 53°32' E 008°35'177344.2
2018-Apr-05 23:26N 52°11' E 004°14'177392.0
2018-Apr-05 22:59N 53°32' E 008°35'0 0.0
2018-Apr-05 22:29N 53°32' E 008°35'177168.9
2018-Apr-05 21:26N 52°11' E 004°14'17772.2
2018-Apr-05 18:59N 53°32' E 008°35'7 3.7
2018-Apr-05 16:59N 53°25' E 008°30'13 8.7
2018-Apr-05 15:30N 53°12' E 008°30'4 8.1
2018-Apr-05 15:00N 53°10' E 008°36'4 7.9
2018-Apr-05 14:30N 53°07' E 008°41'2 4.1
2018-Apr-05 14:00N 53°07' E 008°44'0 0.3
2018-Apr-05 13:00N 53°07' E 008°44'3 5.7
2018-Apr-05 12:30N 53°08' E 008°39'17184.5
2018-Apr-05 10:29N 52°11' E 004°14'0 0.0
2018-Apr-05 09:59N 52°11' E 004°14'170336.0
2018-Apr-05 09:29N 53°20' E 008°30'2 3.7
2018-Apr-05 08:59N 53°22' E 008°30'2 3.7
2018-Apr-05 08:25N 53°24' E 008°30'1 3.4
2018-Apr-05 08:00N 53°26' E 008°30'172335.8
2018-Apr-05 07:29N 52°11' E 004°14'173342.3
2018-Apr-05 06:59N 53°29' E 008°30'173316.9
2018-Apr-05 06:26N 52°11' E 004°14'0 0.0
2018-Apr-05 05:59N 52°11' E 004°14'176362.7
2018-Apr-05 05:30N 53°32' E 008°34'1 1.4
2018-Apr-05 04:59N 53°32' E 008°35'1 2.0
2018-Apr-05 04:31N 53°31' E 008°35'1 1.5
2018-Apr-05 03:56N 53°32' E 008°35'177395.0
2018-Apr-05 03:29N 52°11' E 004°14'0 0.0
2018-Apr-05 02:59N 52°11' E 004°14'0 0.0
2018-Apr-05 02:26N 52°11' E 004°14'0 0.2
2018-Apr-05 01:59N 52°11' E 004°14'177119.5
2018-Apr-05 00:30N 53°32' E 008°35'177340.3
2018-Apr-04 23:59N 52°11' E 004°14'0 0.0
2018-Apr-04 22:59N 52°11' E 004°14'0 0.0
2018-Apr-04 22:29N 52°11' E 004°14'0 0.0
2018-Apr-04 21:29N 52°11' E 004°14'0 0.1
2018-Apr-04 20:59N 52°11' E 004°14'177366.0
2018-Apr-04 20:30N 53°32' E 008°35'177342.2
2018-Apr-04 19:59N 52°11' E 004°14'0 0.0
2018-Apr-04 19:29N 52°11' E 004°14'0 0.1
2018-Apr-04 18:59N 52°11' E 004°14'177348.5
2018-Apr-04 18:29N 53°32' E 008°35'2 3.6
2018-Apr-04 18:00N 53°33' E 008°33'0 0.8
2018-Apr-04 17:30N 53°34' E 008°33'177350.5
2018-Apr-04 17:00N 52°11' E 004°14'1 1.6
2018-Apr-04 16:30N 52°11' E 004°12'612.3
2018-Apr-04 16:01N 52°11' E 004°02'713.7
2018-Apr-04 15:30N 52°12' E 003°51'8 2.6
2018-Apr-04 12:30N 52°05' E 003°51'714.2
2018-Apr-04 12:00N 52°07' E 004°02'713.8
2018-Apr-04 11:30N 52°10' E 004°12'179353.8
2018-Apr-04 11:00N 53°32' E 008°35'177346.3
2018-Apr-04 10:29N 52°11' E 004°13'0 0.1
2018-Apr-04 09:59N 52°11' E 004°13'0 0.1
2018-Apr-04 09:29N 52°11' E 004°13'0 0.0
2018-Apr-04 08:59N 52°11' E 004°13'0 0.0
2018-Apr-04 08:26N 52°11' E 004°13'177186.0
2018-Apr-04 07:29N 53°32' E 008°35'177355.5
2018-Apr-04 06:59N 52°11' E 004°13'0 0.0
2018-Apr-04 06:26N 52°11' E 004°13'0 0.0
2018-Apr-04 05:59N 52°11' E 004°14'0 0.0
2018-Apr-04 05:29N 52°11' E 004°14'177176.8
2018-Apr-04 04:29N 53°32' E 008°35'177355.5
2018-Apr-04 03:59N 52°11' E 004°14'0 0.0
2018-Apr-04 03:29N 52°11' E 004°14'0 0.0
2018-Apr-04 02:59N 52°11' E 004°13'177353.0
2018-Apr-04 02:29N 53°32' E 008°35'177355.6
2018-Apr-04 01:59N 52°11' E 004°13'0 0.0
2018-Apr-04 01:29N 52°11' E 004°13'0 0.1
2018-Apr-04 00:59N 52°11' E 004°13'177320.7
2018-Apr-04 00:26N 53°32' E 008°35'0 0.0
2018-Apr-03 23:59N 53°32' E 008°35'0 0.0
2018-Apr-03 23:29N 53°32' E 008°35'177357.9
2018-Apr-03 22:59N 52°11' E 004°13'177353.0
2018-Apr-03 22:29N 53°32' E 008°35'177355.3
2018-Apr-03 21:59N 52°11' E 004°14'0 0.1
2018-Apr-03 21:29N 52°11' E 004°14'0 0.0
2018-Apr-03 20:56N 52°11' E 004°14'0 0.1
2018-Apr-03 20:29N 52°11' E 004°14'0 0.0
2018-Apr-03 19:59N 52°11' E 004°14'0 0.0
2018-Apr-03 19:29N 52°11' E 004°14'0 0.0
2018-Apr-03 18:59N 52°11' E 004°14'177179.7
2018-Apr-03 18:00N 53°33' E 008°34'0 0.0
2018-Apr-03 17:30N 53°33' E 008°34'0 0.0
2018-Apr-03 17:00N 53°33' E 008°34'0 0.2
2018-Apr-03 16:30N 53°33' E 008°34'0 0.1
2018-Apr-03 16:00N 53°33' E 008°34'1 0.3
2018-Apr-03 12:00N 53°32' E 008°35'3 2.6
2018-Apr-03 11:00N 53°34' E 008°33'0 0.2
2018-Apr-03 10:27N 53°34' E 008°33'1 1.5
2018-Apr-03 10:00N 53°34' E 008°33'0 0.7
2018-Apr-03 09:30N 53°34' E 008°34'177330.5
2018-Apr-03 08:58N 52°11' E 004°13'0 0.0
2018-Apr-03 08:28N 52°11' E 004°13'0 0.0
2018-Apr-03 07:28N 52°11' E 004°13'0 0.0
2018-Apr-03 06:58N 52°11' E 004°13'177386.0
2018-Apr-03 06:30N 53°34' E 008°34'177328.5
2018-Apr-03 05:58N 52°11' E 004°13'0 0.0
2018-Apr-03 05:25N 52°11' E 004°13'177439.1
2018-Apr-03 05:00N 53°34' E 008°34'1 2.7
2018-Apr-03 04:30N 53°33' E 008°34'177299.1
2018-Apr-03 03:55N 52°11' E 004°13'0 0.0
2018-Apr-03 02:28N 52°11' E 004°13'0 0.0
2018-Apr-03 01:58N 52°11' E 004°13'177387.1
2018-Apr-03 01:30N 53°32' E 008°35'177326.3
2018-Apr-03 00:58N 52°11' E 004°13'177387.4
2018-Apr-03 00:30N 53°32' E 008°35'177326.6
2018-Apr-02 23:58N 52°11' E 004°13'177390.3
2018-Apr-02 23:30N 53°32' E 008°35'0 0.0
2018-Apr-02 23:00N 53°32' E 008°35'0 0.0
2018-Apr-02 22:30N 53°32' E 008°35'0 0.0
2018-Apr-02 22:00N 53°32' E 008°35'177326.7
2018-Apr-02 21:28N 52°11' E 004°13'0 0.2
2018-Apr-02 20:58N 52°11' E 004°13'0 0.1
2018-Apr-02 20:28N 52°11' E 004°13'0 0.0
2018-Apr-02 19:58N 52°11' E 004°13'177373.5
2018-Apr-02 19:29N 53°32' E 008°35'177336.6
2018-Apr-02 18:58N 52°11' E 004°13'0 0.0
2018-Apr-02 18:28N 52°11' E 004°13'177387.6
2018-Apr-02 18:00N 53°32' E 008°35'0 0.0
2018-Apr-02 17:30N 53°32' E 008°35'0 0.0
2018-Apr-02 16:57N 53°32' E 008°35'0 0.0
2018-Apr-02 16:29N 53°32' E 008°35'0 0.0
2018-Apr-02 16:00N 53°32' E 008°35'0 0.0
2018-Apr-02 15:30N 53°32' E 008°35'0 0.0
2018-Apr-02 15:00N 53°32' E 008°35'0 0.0
2018-Apr-02 14:30N 53°32' E 008°35'177329.8
2018-Apr-02 13:58N 52°11' E 004°13'0 0.1
2018-Apr-02 13:28N 52°11' E 004°13'0 0.1
2018-Apr-02 12:58N 52°11' E 004°13'177385.5
2018-Apr-02 12:30N 53°32' E 008°35'0 0.0
2018-Apr-02 12:00N 53°32' E 008°35'0 0.0
2018-Apr-02 11:30N 53°32' E 008°35'0 0.0
2018-Apr-02 10:58N 53°32' E 008°35'0 0.0
2018-Apr-02 09:58N 53°32' E 008°35'0 0.0
2018-Apr-02 09:30N 53°32' E 008°35'0 0.0
2018-Apr-02 09:00N 53°32' E 008°35'0 0.0
2018-Apr-02 08:00N 53°32' E 008°35'177325.0
2018-Apr-02 07:28N 52°11' E 004°13'177387.1
2018-Apr-02 07:00N 53°32' E 008°35'0 0.0
2018-Apr-02 05:57N 53°32' E 008°35'177326.3
2018-Apr-02 05:25N 52°11' E 004°13'0 0.0
2018-Apr-02 04:58N 52°11' E 004°13'0 0.0
2018-Apr-02 04:28N 52°11' E 004°13'0 0.0
2018-Apr-02 03:58N 52°11' E 004°13'0 0.0
2018-Apr-02 03:28N 52°11' E 004°13'177382.5
2018-Apr-02 03:00N 53°32' E 008°35'177329.7
2018-Apr-02 02:28N 52°11' E 004°13'0 0.1
2018-Apr-02 01:28N 52°11' E 004°13'0 0.1
2018-Apr-02 00:58N 52°11' E 004°13'0 0.1
2018-Apr-02 00:28N 52°11' E 004°13'17711.1
2018-Apr-01 08:30N 53°34' E 008°33'0 0.0
2018-Apr-01 07:00N 53°34' E 008°33'0 0.2
2018-Apr-01 06:30N 53°34' E 008°33'0 0.0
2018-Apr-01 06:00N 53°34' E 008°33'0 0.2
2018-Apr-01 05:30N 53°34' E 008°33'0 0.5
2018-Apr-01 05:00N 53°34' E 008°33'177115.0
2018-Apr-01 03:28N 52°11' E 004°14'177184.7
2018-Apr-01 02:30N 53°32' E 008°35'177326.2
2018-Apr-01 01:58N 52°11' E 004°14'177377.8
2018-Apr-01 01:30N 53°32' E 008°35'0 0.0
2018-Apr-01 00:55N 53°32' E 008°35'0 0.0
2018-Apr-01 00:30N 53°32' E 008°35'0 0.0
2018-Mar-31 23:00N 53°32' E 008°35'0 0.0
2018-Mar-31 22:30N 53°32' E 008°35'0 0.0
2018-Mar-31 22:00N 53°32' E 008°35'0 0.0
2018-Mar-31 21:30N 53°32' E 008°35'0 0.0
2018-Mar-31 20:30N 53°32' E 008°35'0 0.0
2018-Mar-31 19:58N 53°32' E 008°35'0 0.0
2018-Mar-31 19:30N 53°32' E 008°35'0 0.0
2018-Mar-31 19:00N 53°32' E 008°35'0 0.0
2018-Mar-31 18:30N 53°32' E 008°35'177114.5
2018-Mar-31 16:58N 52°11' E 004°14'177389.3
2018-Mar-31 16:30N 53°32' E 008°35'0 0.0
2018-Mar-31 16:00N 53°32' E 008°35'0 0.0
2018-Mar-31 15:30N 53°32' E 008°35'0 0.0
2018-Mar-31 15:00N 53°32' E 008°35'177324.4
2018-Mar-31 14:28N 52°11' E 004°14'0 0.0
2018-Mar-31 13:58N 52°11' E 004°14'0 0.0
2018-Mar-31 13:28N 52°11' E 004°14'177387.5
2018-Mar-31 13:00N 53°32' E 008°35'0 0.0
2018-Mar-31 12:30N 53°32' E 008°35'0 0.0
2018-Mar-31 12:00N 53°32' E 008°35'0 0.0
2018-Mar-31 11:30N 53°32' E 008°35'0 0.0
2018-Mar-31 11:00N 53°32' E 008°35'0 0.0
2018-Mar-31 10:30N 53°32' E 008°35'0 0.0
2018-Mar-31 10:00N 53°32' E 008°35'0 0.0
2018-Mar-31 09:30N 53°32' E 008°35'177333.6
2018-Mar-31 08:58N 52°11' E 004°13'177384.9
2018-Mar-31 08:30N 53°32' E 008°35'0 0.0
2018-Mar-31 08:00N 53°32' E 008°35'0 0.0
2018-Mar-31 07:28N 53°32' E 008°35'0 0.0
2018-Mar-31 07:00N 53°32' E 008°35'0 0.0
2018-Mar-31 06:30N 53°32' E 008°35'0 0.0
2018-Mar-31 06:00N 53°32' E 008°35'0 0.0
2018-Mar-31 05:28N 53°32' E 008°35'177355.3
2018-Mar-31 04:58N 52°11' E 004°14'0 0.0
2018-Mar-31 04:28N 52°11' E 004°14'177387.2
2018-Mar-31 04:00N 53°32' E 008°35'177325.9
2018-Mar-31 03:28N 52°11' E 004°14'0 0.0
2018-Mar-31 02:58N 52°11' E 004°14'177385.2
2018-Mar-31 02:30N 53°32' E 008°35'0 0.0
2018-Mar-31 02:00N 53°32' E 008°35'177326.1
2018-Mar-31 01:28N 52°11' E 004°13'177387.3
2018-Mar-31 01:00N 53°32' E 008°35'0 0.0
2018-Mar-31 00:29N 53°32' E 008°35'0 0.0
2018-Mar-31 00:00N 53°32' E 008°35'0 0.0
2018-Mar-30 23:30N 53°32' E 008°35'0 0.0
2018-Mar-30 23:00N 53°32' E 008°35'0 0.0
2018-Mar-30 22:30N 53°32' E 008°35'0 0.0
2018-Mar-30 22:00N 53°32' E 008°35'0 0.0
2018-Mar-30 21:30N 53°32' E 008°35'0 0.0
2018-Mar-30 21:00N 53°32' E 008°35'0 0.0
2018-Mar-30 20:30N 53°32' E 008°35'177331.7
2018-Mar-30 19:58N 52°11' E 004°13'177387.9
2018-Mar-30 19:30N 53°32' E 008°35'177326.6
2018-Mar-30 18:58N 52°11' E 004°13'177121.6
2018-Mar-30 17:30N 53°32' E 008°35'0 0.0
2018-Mar-30 16:58N 53°32' E 008°35'178390.8
2018-Mar-30 16:30N 52°11' E 004°12'1212.4
2018-Mar-30 15:30N 52°06' E 003°53'713.0
2018-Mar-30 15:00N 52°06' E 003°43'19656.1
2018-Mar-30 11:30N 53°32' E 008°35'0 0.0
2018-Mar-30 09:58N 53°32' E 008°35'270277.3
2018-Mar-30 09:00N 51°20' E 002°08'612.6
2018-Mar-30 08:30N 51°14' E 002°04'611.8
2018-Mar-30 08:01N 51°11' E 001°56'611.4
2018-Mar-30 07:30N 51°07' E 001°49'510.9
2018-Mar-30 07:00N 51°04' E 001°43'510.8
2018-Mar-30 06:31N 50°60' E 001°37'  

Dump ship's entire track history